Time;durP1;ratioP1;P1;durP2;ratioP2;P2;SDS_P1;SDS_P2;PMS_P1;PMS_P2;Temp;Humidity;BMP_temperature;BMP_pressure;BME280_temperature;BME280_humidity;BME280_pressure;Samples;Min_cycle;Max_cycle;Signal;HPM_P1;HPM_P2
2022/01/18 00:01:29;;;;;;;1.40;0.70;;;;;;;-2.97;67.33;97850.35;104591;1274;61138;-23
2022/01/18 00:03:58;;;;;;;1.50;0.60;;;;;;;-3.09;67.68;97861.39;104587;1275;74308;-23
2022/01/18 00:06:27;;;;;;;2.00;0.90;;;;;;;-3.20;68.40;97860.69;104591;1276;76483;-23
2022/01/18 00:08:55;;;;;;;3.00;0.90;;;;;;;-3.28;68.64;97865.29;104698;1276;74313;-23
2022/01/18 00:11:27;;;;;;;2.20;0.70;;;;;;;-3.31;68.66;97871.31;104553;1274;62151;-23
2022/01/18 00:14:02;;;;;;;2.20;0.80;;;;;;;-3.37;68.99;97882.80;104552;1274;61053;-23
2022/01/18 00:16:39;;;;;;;2.00;0.80;;;;;;;-3.15;67.52;97867.23;104582;1274;75537;-23
2022/01/18 00:19:10;;;;;;;1.80;0.60;;;;;;;-2.96;66.70;97892.58;104599;1274;75803;-23
2022/01/18 00:24:07;;;;;;;1.30;0.70;;;;;;;-3.13;66.71;97910.82;104599;1274;61500;-23
2022/01/18 00:26:36;;;;;;;2.10;0.70;;;;;;;-3.27;66.42;97924.64;104593;1274;61117;-23
2022/01/18 00:29:09;;;;;;;1.80;1.00;;;;;;;-3.33;65.94;97921.17;104593;1275;75682;-23
2022/01/18 00:34:29;;;;;;;3.10;0.80;;;;;;;-3.55;66.57;97952.66;104563;1274;74505;-23
2022/01/18 00:37:11;;;;;;;1.40;0.80;;;;;;;-3.63;66.75;97948.40;104598;1275;61769;-22
2022/01/18 00:39:42;;;;;;;1.50;0.60;;;;;;;-3.66;66.68;97945.11;104609;1274;61732;-23
2022/01/18 00:42:10;;;;;;;3.50;0.70;;;;;;;-3.74;67.09;97943.73;104556;1275;75179;-23
2022/01/18 00:44:39;;;;;;;1.90;0.70;;;;;;;-3.78;67.17;97981.37;104729;1274;75746;-23
2022/01/18 00:47:07;;;;;;;1.50;0.80;;;;;;;-3.83;67.19;97979.70;104716;1274;74409;-23
2022/01/18 00:49:42;;;;;;;3.30;0.90;;;;;;;-3.72;65.98;97953.99;104741;1274;62724;-23
2022/01/18 00:52:10;;;;;;;2.80;1.20;;;;;;;-3.42;64.43;97991.83;104593;1275;61157;-23
2022/01/18 00:54:43;;;;;;;1.50;0.70;;;;;;;-3.37;64.63;98001.13;104757;1274;75533;-23
2022/01/18 00:57:12;;;;;;;1.80;0.80;;;;;;;-3.51;64.64;98009.82;104689;1274;74608;-23
2022/01/18 00:59:42;;;;;;;2.40;0.70;;;;;;;-3.65;64.33;97996.98;104738;1274;71298;-24
2022/01/18 01:02:16;;;;;;;5.40;1.20;;;;;;;-3.76;64.88;98013.54;104636;1274;61300;-23
2022/01/18 01:04:49;;;;;;;2.70;0.70;;;;;;;-3.74;63.19;98001.23;104619;1274;62045;-23
2022/01/18 01:07:20;;;;;;;0.90;0.60;;;;;;;-3.80;63.31;98000.45;104586;1276;75415;-23
2022/01/18 01:09:48;;;;;;;0.70;0.60;;;;;;;-3.83;63.34;98002.30;104601;1276;74353;-23
2022/01/18 01:12:19;;;;;;;3.40;0.60;;;;;;;-3.90;63.20;98017.63;104419;1275;74451;-23
2022/01/18 01:14:48;;;;;;;1.80;0.90;;;;;;;-3.89;62.78;98009.95;104422;1275;61223;-23
2022/01/18 01:34:15;;;;;;;1.30;0.80;;;;;;;-4.15;63.42;98070.11;104721;1276;75371;-23
2022/01/18 01:45:10;;;;;;;1.60;0.80;;;;;;;-4.15;62.48;98100.45;104810;1274;61156;-23
2022/01/18 01:47:38;;;;;;;2.30;1.00;;;;;;;-4.17;63.28;98096.13;104694;1275;75308;-23
2022/01/18 01:50:15;;;;;;;1.70;0.70;;;;;;;-4.15;62.57;98115.23;104626;1275;74875;-23
2022/01/18 01:52:44;;;;;;;3.70;0.90;;;;;;;-4.20;63.34;98103.17;104596;1274;74087;-23
2022/01/18 01:55:12;;;;;;;1.80;0.70;;;;;;;-4.21;63.50;98119.02;104567;1274;61784;-23
2022/01/18 01:57:41;;;;;;;3.10;1.00;;;;;;;-4.23;63.52;98131.45;104711;1274;61134;-23
2022/01/18 02:00:13;;;;;;;1.20;0.60;;;;;;;-4.28;63.70;98140.09;104615;1274;74373;-23
2022/01/18 02:02:41;;;;;;;3.00;0.80;;;;;;;-4.33;63.82;98146.68;104562;1274;75995;-23
2022/01/18 02:05:10;;;;;;;1.70;0.70;;;;;;;-4.28;63.06;98142.95;104567;1274;73430;-23
2022/01/18 02:07:44;;;;;;;2.00;0.80;;;;;;;-4.27;63.04;98161.23;104544;1274;61156;-21
2022/01/18 02:10:14;;;;;;;2.50;1.10;;;;;;;-4.29;63.09;98151.83;104608;1274;61200;-25
2022/01/18 02:12:42;;;;;;;2.40;0.90;;;;;;;-4.26;62.44;98149.84;104544;1276;75532;-24
2022/01/18 02:15:17;;;;;;;3.50;0.90;;;;;;;-4.30;62.75;98172.04;104738;1274;75744;-21
2022/01/18 02:23:26;;;;;;;3.30;1.10;;;;;;;-4.46;63.52;98190.19;104619;1275;62079;-24
2022/01/18 02:25:54;;;;;;;3.20;0.80;;;;;;;-4.47;63.07;98201.08;104575;1275;74496;-25
2022/01/18 02:28:23;;;;;;;2.30;0.90;;;;;;;-4.46;63.16;98185.13;104607;1275;72576;-22
2022/01/18 02:30:51;;;;;;;2.10;0.90;;;;;;;-4.36;62.08;98180.19;104649;1276;74714;-24
2022/01/18 02:33:20;;;;;;;1.60;0.70;;;;;;;-4.36;62.01;98194.06;104480;1274;61172;-23
2022/01/18 02:35:49;;;;;;;3.10;1.20;;;;;;;-4.40;62.04;98196.39;104580;1274;61123;-23
2022/01/18 02:38:18;;;;;;;2.20;0.60;;;;;;;-4.40;62.20;98205.55;104594;1274;74051;-23
2022/01/18 02:40:46;;;;;;;2.00;0.70;;;;;;;-4.44;62.62;98214.73;104610;1276;76040;-23
2022/01/18 02:46:04;;;;;;;3.00;0.90;;;;;;;-4.43;62.63;98211.80;104747;1274;62150;-23
2022/01/18 02:48:32;;;;;;;3.00;0.70;;;;;;;-4.45;62.90;98201.54;104740;1274;61201;-23
2022/01/18 02:51:01;;;;;;;1.60;0.90;;;;;;;-4.48;63.06;98195.34;104735;1274;75506;-23
2022/01/18 02:53:29;;;;;;;1.40;0.90;;;;;;;-4.51;63.39;98231.02;104675;1274;76192;-23
2022/01/18 02:55:59;;;;;;;2.50;0.70;;;;;;;-4.53;63.22;98223.97;104705;1274;74202;-23
2022/01/18 02:58:33;;;;;;;2.30;0.90;;;;;;;-4.48;62.73;98237.35;104733;1274;61159;-23
2022/01/18 03:03:35;;;;;;;3.10;0.90;;;;;;;-4.53;63.33;98253.27;104703;1274;75582;-23
2022/01/18 03:06:04;;;;;;;2.90;0.90;;;;;;;-4.53;62.73;98229.73;104568;1276;76048;-23
2022/01/18 03:08:33;;;;;;;3.50;0.90;;;;;;;-4.57;62.85;98254.09;104599;1276;73557;-23
2022/01/18 03:11:02;;;;;;;1.70;0.80;;;;;;;-4.54;63.03;98245.18;104580;1274;62087;-22
2022/01/18 03:13:30;;;;;;;1.30;0.60;;;;;;;-4.57;62.72;98224.27;104660;1275;62050;-23
2022/01/18 03:15:59;;;;;;;1.20;0.70;;;;;;;-4.54;62.58;98236.39;104584;1276;74565;-22
2022/01/18 03:18:28;;;;;;;1.70;0.70;;;;;;;-4.62;62.97;98246.13;104681;1274;76179;-24
2022/01/18 03:20:56;;;;;;;7.40;1.40;;;;;;;-4.58;62.23;98243.10;104716;1274;74399;-24
2022/01/18 03:23:25;;;;;;;1.70;0.80;;;;;;;-4.54;62.51;98225.86;104614;1274;61157;-23
2022/01/18 03:28:22;;;;;;;6.60;1.00;;;;;;;-4.54;62.72;98261.79;104689;1274;74613;-24
2022/01/18 03:30:54;;;;;;;2.90;1.10;;;;;;;-4.59;62.89;98280.75;104760;1275;75801;-25
2022/01/18 03:33:23;;;;;;;6.70;1.10;;;;;;;-4.59;62.25;98269.91;104593;1275;73648;-25
2022/01/18 03:35:53;;;;;;;2.30;1.00;;;;;;;-4.60;62.68;98269.43;104756;1273;61147;-23
2022/01/18 03:38:22;;;;;;;2.40;0.80;;;;;;;-4.61;62.94;98270.29;104708;1273;62029;-23
2022/01/18 03:40:50;;;;;;;2.90;0.90;;;;;;;-4.57;62.20;98258.67;104680;1273;75544;-23
2022/01/18 03:43:18;;;;;;;1.80;0.90;;;;;;;-4.53;61.88;98260.41;104809;1273;75732;-23
2022/01/18 03:45:47;;;;;;;5.20;1.10;;;;;;;-4.57;62.50;98284.23;104747;1273;73326;-23
2022/01/18 03:48:32;;;;;;;3.50;0.70;;;;;;;-4.62;62.76;98290.16;104671;1273;61162;-23
2022/01/18 03:51:02;;;;;;;3.30;0.90;;;;;;;-4.61;62.94;98287.08;104700;1273;61116;-23
2022/01/18 03:53:31;;;;;;;2.70;0.70;;;;;;;-4.58;62.58;98299.72;104657;1273;75727;-23
2022/01/18 03:55:59;;;;;;;2.70;0.70;;;;;;;-4.60;63.38;98321.78;104822;1272;74323;-23
2022/01/18 03:58:27;;;;;;;3.90;1.20;;;;;;;-4.62;63.21;98312.36;104672;1273;74772;-24
2022/01/18 04:00:56;;;;;;;2.10;1.00;;;;;;;-4.64;63.01;98343.23;104751;1273;61165;-23
2022/01/18 04:03:27;;;;;;;3.80;1.00;;;;;;;-4.61;62.53;98337.74;104742;1273;61048;-23
2022/01/18 04:05:56;;;;;;;1.80;1.30;;;;;;;-4.58;62.24;98341.36;104803;1273;74585;-23
2022/01/18 04:08:26;;;;;;;7.50;1.30;;;;;;;-4.65;63.15;98352.43;104788;1273;76041;-23
2022/01/18 04:10:54;;;;;;;0.80;0.70;;;;;;;-4.70;63.22;98348.02;104869;1273;73032;-24
2022/01/18 04:13:23;;;;;;;1.00;0.50;;;;;;;-4.69;63.14;98339.67;104727;1273;61078;-23
2022/01/18 04:15:51;;;;;;;1.40;0.70;;;;;;;-4.65;63.21;98337.70;104685;1273;61163;-23
2022/01/18 04:18:28;;;;;;;3.00;0.90;;;;;;;-4.73;63.55;98354.17;104718;1272;74768;-23
2022/01/18 04:29:00;;;;;;;2.50;0.90;;;;;;;-4.60;62.22;98367.52;105109;1273;61131;-22
2022/01/18 04:31:28;;;;;;;3.10;0.70;;;;;;;-4.65;62.47;98386.45;104935;1273;75680;-22
2022/01/18 04:33:57;;;;;;;2.20;0.70;;;;;;;-4.65;62.24;98383.58;104816;1273;74565;-23
2022/01/18 04:36:27;;;;;;;1.90;1.00;;;;;;;-4.64;62.70;98381.38;104902;1273;72389;-23
2022/01/18 04:38:55;;;;;;;1.90;1.00;;;;;;;-4.57;62.28;98384.71;104765;1273;61159;-23
2022/01/18 04:41:29;;;;;;;3.00;1.00;;;;;;;-4.61;62.70;98386.02;104734;1273;61909;-23
2022/01/18 04:49:15;;;;;;;2.70;0.90;;;;;;;-4.58;62.20;98409.83;104806;1273;74404;-23
2022/01/18 04:51:44;;;;;;;2.30;0.90;;;;;;;-4.58;62.58;98407.12;104817;1273;61929;-23
2022/01/18 04:54:12;;;;;;;4.20;0.90;;;;;;;-4.59;62.34;98405.61;104733;1273;61731;-23
2022/01/18 04:59:09;;;;;;;0.80;0.70;;;;;;;-4.61;62.66;98421.07;104750;1273;75779;-23
2022/01/18 05:01:40;;;;;;;1.90;0.90;;;;;;;-4.64;63.07;98432.35;104718;1273;70873;-22
2022/01/18 05:04:09;;;;;;;0.80;0.70;;;;;;;-4.67;63.31;98448.52;104652;1273;60996;-22
2022/01/18 05:06:38;;;;;;;2.30;0.70;;;;;;;-4.70;63.50;98436.58;104865;1273;61103;-23
2022/01/18 05:09:08;;;;;;;3.80;0.80;;;;;;;-4.61;63.17;98445.14;104795;1273;73220;-23
2022/01/18 05:11:47;;;;;;;2.30;0.80;;;;;;;-4.65;63.02;98454.74;104723;1272;75996;-23
2022/01/18 05:14:31;;;;;;;1.60;0.60;;;;;;;-4.67;63.65;98449.70;104647;1273;74382;-24
2022/01/18 05:17:08;;;;;;;1.00;0.70;;;;;;;-4.71;63.64;98410.19;105024;1273;61145;-24
2022/01/18 05:24:55;;;;;;;0.50;0.50;;;;;;;-4.76;64.78;98469.46;104740;1272;74914;-24
2022/01/18 05:27:23;;;;;;;0.70;0.50;;;;;;;-4.82;65.46;98460.98;104743;1273;74473;-24
2022/01/18 05:29:52;;;;;;;2.30;0.50;;;;;;;-4.81;65.19;98468.91;104762;1273;62307;-24
2022/01/18 05:32:20;;;;;;;0.90;0.60;;;;;;;-4.45;64.79;98462.64;104792;1272;61133;-24
2022/01/18 05:34:48;;;;;;;2.90;0.90;;;;;;;-4.18;64.08;98454.88;104726;1273;75371;-24
2022/01/18 05:37:17;;;;;;;1.30;0.70;;;;;;;-4.23;64.77;98464.70;104735;1273;75946;-24
2022/01/18 05:39:46;;;;;;;3.60;1.00;;;;;;;-4.37;65.35;98469.16;104713;1273;74272;-24
2022/01/18 05:42:15;;;;;;;0.80;0.60;;;;;;;-4.51;65.77;98477.89;104735;1273;61104;-24
2022/01/18 05:44:43;;;;;;;2.20;0.80;;;;;;;-4.57;66.05;98475.86;104882;1273;61728;-24
2022/01/18 05:47:11;;;;;;;2.20;0.60;;;;;;;-4.58;66.62;98477.60;104757;1273;75925;-24
2022/01/18 05:49:39;;;;;;;5.40;1.10;;;;;;;-4.65;67.09;98479.47;104735;1273;75988;-24
2022/01/18 05:52:08;;;;;;;0.70;0.50;;;;;;;-4.67;67.47;98482.58;104793;1273;74374;-24
2022/01/18 05:54:37;;;;;;;2.20;0.60;;;;;;;-4.71;67.18;98484.37;104885;1271;61044;-24
2022/01/18 05:57:05;;;;;;;2.10;0.80;;;;;;;-4.69;67.84;98496.70;104768;1273;61702;-24
2022/01/18 05:59:37;;;;;;;1.00;0.70;;;;;;;-4.46;67.36;98498.24;104813;1273;76086;-25
2022/01/18 06:02:17;;;;;;;3.10;1.00;;;;;;;-4.22;66.07;98481.61;105123;1273;75971;-22
2022/01/18 06:07:33;;;;;;;1.90;0.90;;;;;;;-4.31;66.65;98496.13;104986;1273;61251;-22
2022/01/18 06:10:03;;;;;;;1.60;0.90;;;;;;;-4.35;67.14;98506.23;105050;1273;62134;-22
2022/01/18 06:12:32;;;;;;;1.80;0.80;;;;;;;-4.44;67.44;98504.46;104768;1274;74661;-22
2022/01/18 06:15:01;;;;;;;1.70;0.90;;;;;;;-4.49;68.05;98504.77;104861;1273;74203;-23
2022/01/18 06:17:30;;;;;;;2.20;0.60;;;;;;;-4.49;68.05;98506.48;104747;1273;72793;-22
2022/01/18 06:19:58;;;;;;;2.10;0.70;;;;;;;-4.52;68.57;98503.67;104776;1273;61146;-22
2022/01/18 06:22:27;;;;;;;1.90;0.70;;;;;;;-4.53;68.78;98511.65;104789;1273;61005;-23
2022/01/18 06:24:55;;;;;;;2.40;1.00;;;;;;;-4.31;68.60;98517.46;104755;1273;75540;-22
2022/01/18 06:27:23;;;;;;;4.10;0.50;;;;;;;-4.15;67.60;98518.53;104591;1275;76084;-23
2022/01/18 06:29:52;;;;;;;2.80;0.90;;;;;;;-4.13;67.95;98521.85;104808;1273;71707;-22
2022/01/18 06:32:20;;;;;;;2.60;0.80;;;;;;;-4.19;68.38;98527.45;105160;1273;61386;-22
2022/01/18 06:34:49;;;;;;;3.20;0.80;;;;;;;-4.22;68.66;98547.05;105146;1273;61141;-23
2022/01/18 06:37:17;;;;;;;4.20;0.80;;;;;;;-4.29;69.23;98541.15;105114;1273;74426;-23
2022/01/18 06:39:46;;;;;;;3.90;1.00;;;;;;;-4.31;69.43;98554.27;104987;1273;75809;-22
2022/01/18 06:42:15;;;;;;;3.60;0.80;;;;;;;-4.28;69.19;98545.52;104856;1273;73400;-24
2022/01/18 06:44:43;;;;;;;3.20;0.70;;;;;;;-4.27;69.18;98546.52;104741;1273;62688;-22
2022/01/18 06:47:11;;;;;;;1.40;0.60;;;;;;;-4.27;70.26;98547.89;104755;1273;61874;-23
2022/01/18 06:49:40;;;;;;;0.90;0.50;;;;;;;-4.15;69.83;98551.27;104721;1273;75288;-23
2022/01/18 06:52:08;;;;;;;0.90;0.60;;;;;;;-3.66;68.81;98571.16;104697;1273;75918;-22
2022/01/18 06:54:37;;;;;;;2.60;0.80;;;;;;;-3.48;67.82;98564.84;104697;1273;72279;-22
2022/01/18 06:57:05;;;;;;;2.70;0.70;;;;;;;-3.51;67.85;98564.77;104766;1273;61371;-22
2022/01/18 06:59:35;;;;;;;0.80;0.50;;;;;;;-3.61;68.41;98556.27;105117;1273;61008;-22
2022/01/18 07:02:04;;;;;;;1.50;0.80;;;;;;;-3.64;68.76;98570.08;104965;1273;74204;-23
2022/01/18 07:04:35;;;;;;;3.30;0.90;;;;;;;-3.67;69.73;98563.05;104711;1273;74504;-22
2022/01/18 07:07:04;;;;;;;2.20;1.20;;;;;;;-3.72;70.10;98557.61;104738;1273;72436;-23
2022/01/18 07:09:34;;;;;;;3.00;0.90;;;;;;;-3.74;70.66;98571.23;104776;1273;61168;-22
2022/01/18 07:12:09;;;;;;;4.10;1.00;;;;;;;-3.77;71.22;98558.77;104780;1273;62007;-24
2022/01/18 07:14:39;;;;;;;2.60;1.00;;;;;;;-3.53;70.79;98571.10;104763;1274;75370;-23
2022/01/18 07:17:25;;;;;;;2.90;0.90;;;;;;;-3.15;69.82;98570.74;104984;1273;75861;-23
2022/01/18 07:19:53;;;;;;;1.50;0.70;;;;;;;-3.09;69.15;98573.60;104762;1273;74883;-23
2022/01/18 07:22:22;;;;;;;4.10;0.90;;;;;;;-3.12;69.52;98587.30;104802;1273;61129;-23
2022/01/18 07:24:55;;;;;;;2.40;1.30;;;;;;;-3.12;69.66;98581.02;105063;1274;61191;-24
2022/01/18 07:27:23;;;;;;;3.20;0.90;;;;;;;-3.27;69.34;98592.36;105097;1273;75491;-23
2022/01/18 07:29:52;;;;;;;1.80;0.80;;;;;;;-3.40;69.32;98574.61;105072;1273;76035;-23
2022/01/18 07:32:20;;;;;;;1.90;0.90;;;;;;;-3.45;70.38;98578.33;105053;1273;74220;-23
2022/01/18 07:34:53;;;;;;;1.80;1.10;;;;;;;-3.35;71.38;98587.50;105108;1273;61157;-23
2022/01/18 07:37:22;;;;;;;2.30;0.90;;;;;;;-3.23;71.96;98600.55;105104;1273;61103;-23
2022/01/18 07:39:52;;;;;;;1.30;0.80;;;;;;;-3.10;71.06;98589.59;105121;1274;72987;-23
2022/01/18 07:42:21;;;;;;;5.00;1.10;;;;;;;-3.06;71.21;98606.77;105074;1273;76023;-23
2022/01/18 07:44:49;;;;;;;3.20;1.30;;;;;;;-3.14;71.64;98608.24;104705;1273;73310;-24
2022/01/18 07:47:18;;;;;;;5.00;1.60;;;;;;;-3.34;74.41;98608.02;104752;1273;61128;-23
2022/01/18 07:49:47;;;;;;;2.00;0.80;;;;;;;-3.59;78.14;98611.67;104704;1274;61100;-25
2022/01/18 07:52:16;;;;;;;2.60;1.20;;;;;;;-3.35;81.15;98625.36;104764;1273;75423;-25
2022/01/18 07:54:44;;;;;;;4.50;1.30;;;;;;;-3.75;83.62;98630.63;104714;1273;75922;-23
2022/01/18 07:57:14;;;;;;;4.10;1.30;;;;;;;-3.90;85.87;98626.19;104860;1273;74447;-24
2022/01/18 07:59:43;;;;;;;2.20;1.20;;;;;;;-3.95;86.63;98629.70;104746;1274;61122;-22
2022/01/18 08:02:11;;;;;;;2.80;1.30;;;;;;;-3.71;86.23;98635.27;104779;1273;61214;-23
2022/01/18 08:04:40;;;;;;;4.40;1.50;;;;;;;-3.53;84.56;98637.96;104710;1274;74694;-23
2022/01/18 08:07:08;;;;;;;3.80;1.10;;;;;;;-3.59;83.73;98639.83;104839;1273;75779;-23
2022/01/18 08:09:37;;;;;;;5.30;1.10;;;;;;;-3.66;83.73;98637.52;104795;1273;74182;-23
2022/01/18 08:12:08;;;;;;;2.70;0.90;;;;;;;-3.83;83.60;98637.98;104748;1273;61314;-23
2022/01/18 08:14:41;;;;;;;3.30;0.70;;;;;;;-3.36;81.92;98652.05;104790;1274;61469;-23
2022/01/18 08:17:10;;;;;;;1.80;0.80;;;;;;;-3.31;80.92;98658.00;105129;1274;74605;-23
2022/01/18 08:19:39;;;;;;;1.70;0.70;;;;;;;-3.42;79.86;98643.56;105142;1274;75022;-23
2022/01/18 08:22:09;;;;;;;1.50;1.00;;;;;;;-3.24;78.69;98655.06;105032;1274;72114;-23
2022/01/18 08:24:37;;;;;;;1.10;0.60;;;;;;;-3.35;78.50;98658.79;105063;1273;61143;-24
2022/01/18 08:27:05;;;;;;;3.90;1.50;;;;;;;-3.41;77.83;98660.35;104944;1273;62106;-22
2022/01/18 08:29:36;;;;;;;1.30;0.90;;;;;;;-3.38;77.21;98663.84;105093;1273;75668;-22
2022/01/18 08:32:16;;;;;;;2.10;0.90;;;;;;;-3.05;75.92;98674.69;104827;1274;75968;-23
2022/01/18 08:34:45;;;;;;;3.80;1.70;;;;;;;-2.42;73.04;98663.80;105019;1274;74428;-23
2022/01/18 08:37:13;;;;;;;6.40;1.60;;;;;;;-2.30;72.00;98668.81;105025;1274;61099;-23
2022/01/18 08:39:41;;;;;;;4.50;1.70;;;;;;;-2.39;71.41;98669.29;105105;1273;61088;-23
2022/01/18 08:42:10;;;;;;;2.10;1.30;;;;;;;-2.62;71.45;98660.20;105077;1274;75737;-23
2022/01/18 08:44:42;;;;;;;5.00;2.20;;;;;;;-2.61;71.33;98658.31;104921;1273;75042;-22
2022/01/18 08:47:15;;;;;;;4.60;1.10;;;;;;;-2.66;70.99;98658.48;104980;1274;73269;-22
2022/01/18 08:49:44;;;;;;;4.00;1.20;;;;;;;-2.61;71.26;98650.48;104750;1275;61115;-25
2022/01/18 08:52:13;;;;;;;5.00;1.90;;;;;;;-2.67;70.06;98653.27;105043;1274;61916;-23
2022/01/18 08:54:42;;;;;;;3.60;1.50;;;;;;;-2.67;70.63;98670.59;104832;1274;75565;-23
2022/01/18 08:57:11;;;;;;;6.00;2.50;;;;;;;-2.76;69.99;98645.23;104766;1274;74124;-23
2022/01/18 08:59:41;;;;;;;8.50;3.70;;;;;;;-2.77;69.49;98672.29;104758;1274;73276;-23
2022/01/18 09:02:10;;;;;;;3.60;1.90;;;;;;;-2.85;69.34;98666.07;104914;1274;61083;-26
2022/01/18 09:04:39;;;;;;;2.60;1.10;;;;;;;-2.52;68.76;98695.90;104656;1274;61024;-25
2022/01/18 09:07:08;;;;;;;3.10;1.10;;;;;;;-2.23;67.65;98683.70;104790;1274;75399;-25
2022/01/18 09:09:40;;;;;;;1.50;0.90;;;;;;;-2.33;67.80;98697.49;104751;1274;75937;-25
2022/01/18 09:12:20;;;;;;;;;;;;;;;-2.30;66.82;98693.65;104594;1274;73413;-23
2022/01/18 09:14:49;;;;;;;4.30;1.50;;;;;;;-2.43;66.65;98701.23;105026;1274;61795;-23
2022/01/18 09:17:18;;;;;;;3.40;1.30;;;;;;;-2.42;66.71;98702.20;104805;1272;61995;-24
2022/01/18 09:19:46;;;;;;;3.50;1.30;;;;;;;-2.32;66.08;98709.37;104768;1274;75552;-23
2022/01/18 09:22:14;;;;;;;2.40;1.10;;;;;;;-2.44;66.26;98700.58;104721;1274;75702;-23
2022/01/18 09:24:42;;;;;;;5.80;1.50;;;;;;;-2.30;65.52;98703.50;104749;1274;74088;-23
2022/01/18 09:27:11;;;;;;;5.90;1.20;;;;;;;-2.25;65.48;98704.19;104709;1273;61014;-23
2022/01/18 09:29:40;;;;;;;2.20;1.30;;;;;;;-2.31;64.97;98700.33;104776;1274;60929;-23
2022/01/18 09:32:08;;;;;;;3.30;1.80;;;;;;;-2.36;64.45;98695.20;104779;1273;75369;-23
2022/01/18 09:34:37;;;;;;;3.50;1.00;;;;;;;-2.35;63.94;98680.55;104861;1274;72817;-23
2022/01/18 09:37:06;;;;;;;3.50;0.90;;;;;;;-2.36;61.69;98679.06;105088;1274;74374;-23
2022/01/18 09:39:34;;;;;;;3.40;1.20;;;;;;;-2.40;62.84;98694.31;105031;1273;61211;-23
2022/01/18 09:42:03;;;;;;;6.30;1.70;;;;;;;-2.36;63.89;98704.40;104903;1274;60943;-23
2022/01/18 09:44:32;;;;;;;4.20;1.10;;;;;;;-2.29;63.69;98705.02;104732;1274;73768;-23
2022/01/18 09:47:00;;;;;;;2.20;1.00;;;;;;;-2.25;63.84;98699.43;104770;1273;76191;-23
2022/01/18 09:49:28;;;;;;;4.60;1.10;;;;;;;-2.36;64.18;98689.44;104805;1274;71840;-23
2022/01/18 09:51:57;;;;;;;3.30;1.00;;;;;;;-2.46;65.19;98713.90;104747;1273;61157;-23
2022/01/18 09:54:25;;;;;;;6.10;1.20;;;;;;;-2.49;65.00;98716.05;104980;1273;61075;-23
2022/01/18 09:56:54;;;;;;;3.20;1.40;;;;;;;-2.51;64.09;98709.98;105077;1274;74209;-23
2022/01/18 09:59:22;;;;;;;6.70;1.50;;;;;;;-2.54;64.51;98726.59;105157;1271;74003;-23
2022/01/18 10:01:51;;;;;;;2.70;1.20;;;;;;;-2.47;63.88;98729.57;105125;1274;71642;-23
2022/01/18 10:04:26;;;;;;;5.00;1.70;;;;;;;-2.30;63.51;98744.67;105141;1274;61568;-23
2022/01/18 10:06:56;;;;;;;4.70;1.50;;;;;;;-2.17;63.39;98746.12;104811;1274;61718;-23
2022/01/18 10:09:26;;;;;;;88.10;46.40;;;;;;;-2.25;63.39;98753.34;104643;1274;74696;-23
2022/01/18 10:12:12;;;;;;;3.90;1.60;;;;;;;-2.50;65.77;98763.69;104647;1274;76068;-23
2022/01/18 10:14:43;;;;;;;11.60;7.10;;;;;;;-2.94;73.84;98780.01;104625;1273;72864;-23
2022/01/18 10:17:11;;;;;;;7.50;1.30;;;;;;;-3.23;78.20;98777.13;104633;1274;61095;-23
2022/01/18 10:19:49;;;;;;;4.70;1.60;;;;;;;-3.12;76.88;98766.44;104734;1273;61165;-23
2022/01/18 10:22:26;;;;;;;3.80;1.20;;;;;;;-3.04;75.19;98773.34;104624;1274;75333;-23
2022/01/18 10:24:54;;;;;;;3.60;1.60;;;;;;;-2.69;73.21;98769.05;104825;1274;74271;-24
2022/01/18 10:27:23;;;;;;;2.90;1.30;;;;;;;-2.37;70.60;98779.59;104803;1273;74199;-23
2022/01/18 10:29:52;;;;;;;6.40;1.90;;;;;;;-2.25;69.30;98774.08;104745;1276;61036;-23
2022/01/18 10:37:25;;;;;;;2.90;1.20;;;;;;;-1.58;59.95;98767.17;105047;1273;74544;-23
2022/01/18 10:40:04;;;;;;;2.00;1.40;;;;;;;-1.70;58.14;98766.95;104764;1273;73403;-23
2022/01/18 10:42:40;;;;;;;1.80;1.00;;;;;;;-1.79;55.66;98781.72;104679;1273;61159;-23
2022/01/18 10:45:14;;;;;;;3.00;1.20;;;;;;;-1.66;56.48;98783.13;104670;1273;62268;-23
2022/01/18 10:48:04;;;;;;;1.60;0.90;;;;;;;-1.59;56.60;98771.15;104602;1274;74555;-23
2022/01/18 10:50:34;;;;;;;2.90;1.20;;;;;;;-1.44;56.87;98783.05;104883;1273;74943;-23
2022/01/18 10:53:13;;;;;;;1.90;0.90;;;;;;;-1.34;56.53;98792.37;104795;1273;73254;-23
2022/01/18 10:55:42;;;;;;;4.80;1.60;;;;;;;-1.36;56.88;98800.45;104654;1273;61047;-23
2022/01/18 10:58:15;;;;;;;5.00;2.10;;;;;;;-1.84;57.06;98805.20;104812;1273;61135;-22
2022/01/18 11:00:43;;;;;;;4.60;2.00;;;;;;;-2.19;56.47;98809.95;104620;1274;75873;-23
2022/01/18 11:03:12;;;;;;;3.00;1.40;;;;;;;-2.47;56.77;98805.23;104673;1273;74533;-22
2022/01/18 11:05:43;;;;;;;3.00;1.10;;;;;;;-2.62;56.27;98809.09;104787;1274;74542;-23
2022/01/18 11:08:15;;;;;;;1.10;0.70;;;;;;;-2.68;56.68;98822.20;104751;1273;61327;-24
2022/01/18 11:10:45;;;;;;;6.70;1.00;;;;;;;-2.57;56.57;98816.06;104631;1273;61174;-25
2022/01/18 11:13:35;;;;;;;2.70;1.00;;;;;;;-2.25;55.39;98824.59;104608;1274;73935;-23
2022/01/18 11:16:12;;;;;;;2.10;0.90;;;;;;;-2.04;53.46;98822.39;104769;1273;76264;-25
2022/01/18 11:18:45;;;;;;;3.50;1.20;;;;;;;-2.16;53.28;98825.33;105029;1273;74257;-23
2022/01/18 11:21:18;;;;;;;5.60;1.40;;;;;;;-2.24;53.94;98830.51;104789;1273;61132;-24
2022/01/18 11:23:46;;;;;;;2.50;1.30;;;;;;;-2.29;53.73;98832.21;104670;1273;61764;-24
2022/01/18 11:26:17;;;;;;;6.30;0.90;;;;;;;-2.35;53.47;98845.16;104722;1273;75650;-22
2022/01/18 11:28:45;;;;;;;3.70;0.80;;;;;;;-2.13;52.42;98835.43;104749;1273;75971;-22
2022/01/18 11:31:13;;;;;;;1.50;1.00;;;;;;;-1.97;52.33;98848.01;105015;1273;74350;-24
2022/01/18 11:33:49;;;;;;;2.60;0.80;;;;;;;-2.01;50.90;98824.51;104808;1273;61110;-24
2022/01/18 11:36:20;;;;;;;5.30;1.20;;;;;;;-1.89;50.77;98844.19;105020;1273;61137;-22
2022/01/18 11:38:56;;;;;;;2.80;1.10;;;;;;;-2.02;50.80;98839.66;105025;1273;74328;-24
2022/01/18 11:41:28;;;;;;;1.40;0.80;;;;;;;-2.03;50.53;98850.44;104971;1274;72382;-24
2022/01/18 11:43:59;;;;;;;2.00;0.90;;;;;;;-1.98;50.84;98851.60;104814;1273;73575;-24
2022/01/18 11:46:40;;;;;;;2.30;1.30;;;;;;;-2.06;51.45;98859.38;104993;1273;61024;-24
2022/01/18 11:49:14;;;;;;;2.30;1.00;;;;;;;-2.19;51.31;98864.89;104891;1274;61089;-24
2022/01/18 11:51:50;;;;;;;1.40;1.00;;;;;;;-2.36;49.99;98859.30;104816;1273;75530;-23
2022/01/18 11:57:23;;;;;;;3.50;1.30;;;;;;;-2.32;51.94;98880.09;105134;1273;73473;-22
2022/01/18 11:59:55;;;;;;;;;;;;;;;-2.36;52.56;98878.34;105113;1273;61144;-23
2022/01/18 12:02:29;;;;;;;2.60;1.30;;;;;;;-2.20;52.06;98890.77;105049;1273;61150;-22
2022/01/18 12:05:01;;;;;;;;;;;;;;;-2.07;50.63;98896.48;104842;1273;75519;-23
2022/01/18 12:07:36;;;;;;;3.00;1.20;;;;;;;-2.18;49.86;98900.41;105108;1273;75206;-23
2022/01/18 12:10:43;;;;;;;3.60;1.20;;;;;;;-2.25;49.97;98898.44;104910;1273;74437;-25
2022/01/18 12:13:34;;;;;;;6.00;1.10;;;;;;;-2.18;50.25;98913.51;105011;1273;61062;-23
2022/01/18 12:16:09;;;;;;;2.30;1.20;;;;;;;-2.10;49.75;98906.60;104993;1273;61746;-23
2022/01/18 12:18:52;;;;;;;2.40;1.40;;;;;;;-2.13;49.39;98910.29;104746;1273;75308;-23
2022/01/18 12:21:26;;;;;;;2.40;1.20;;;;;;;-2.13;49.19;98912.99;104662;1272;75856;-24
2022/01/18 12:23:58;;;;;;;;;;;;;;;-2.14;48.17;98915.59;104737;1273;73968;-23
2022/01/18 12:32:05;;;;;;;2.00;1.00;;;;;;;-2.10;49.07;98930.60;104709;1273;75633;-24
2022/01/18 12:34:40;;;;;;;1.10;0.80;;;;;;;-2.08;48.31;98914.38;104647;1273;76085;-24
2022/01/18 12:37:10;;;;;;;3.50;1.20;;;;;;;-2.07;48.17;98934.25;104633;1273;73726;-22
2022/01/18 12:39:55;;;;;;;5.10;1.30;;;;;;;-2.03;47.88;98941.28;104748;1273;62191;-23
2022/01/18 12:45:00;;;;;;;4.70;1.20;;;;;;;-2.17;47.41;98957.70;105040;1273;76090;-24
2022/01/18 12:47:30;;;;;;;7.40;1.50;;;;;;;-2.19;47.18;98963.36;105006;1273;75860;-23
2022/01/18 12:49:58;;;;;;;3.90;1.00;;;;;;;-2.13;47.95;98972.02;104986;1273;74478;-24
2022/01/18 12:52:26;;;;;;;3.30;1.20;;;;;;;-2.10;48.06;98986.75;104732;1273;61254;-22
2022/01/18 12:54:54;;;;;;;1.90;1.10;;;;;;;-2.05;48.58;98988.46;104947;1273;61174;-23
2022/01/18 12:57:23;;;;;;;3.50;1.10;;;;;;;-2.15;48.57;98989.94;104805;1272;74850;-22
2022/01/18 12:59:58;;;;;;;2.60;1.20;;;;;;;-2.12;48.18;98990.55;104877;1273;75989;-24
2022/01/18 13:02:27;;;;;;;3.70;0.90;;;;;;;-2.15;47.56;98972.45;104678;1273;74400;-25
2022/01/18 13:05:07;;;;;;;4.70;1.40;;;;;;;-2.22;48.30;99002.74;104761;1273;61068;-23
2022/01/18 13:07:51;;;;;;;1.80;1.00;;;;;;;-2.23;47.95;99004.85;104681;1273;61263;-23